Terminal Aerodrome Forecast
Issued by NWS

Home | Current Version | Previous Version | Text Only | Print | Product List | Glossary On
Versions: 1 2 3 4 5 6 7 8 9 10 11 12 13 14 15 16 17
000
FTUS43 KGRR 222330
TAFBTL
TAF
KBTL 222330Z 2300/2324 16003KT P6SM FEW035
     FM230200 22006KT P6SM BKN040
     FM231900 24009KT P6SM SCT140=

USA.gov is the U.S. government's official web portal to all federal, state and local government web resources and services.